sensor_id;sensor_type;location;lat;lon;timestamp;P1;durP1;ratioP1;P2;durP2;ratioP2
5452;SDS011;2749;53.576;9.822;2022-09-13T00:00:35;2.70;;;2.50;;
5452;SDS011;2749;53.576;9.822;2022-09-13T00:03:02;3.93;;;3.30;;
5452;SDS011;2749;53.576;9.822;2022-09-13T00:05:28;2.97;;;2.70;;
5452;SDS011;2749;53.576;9.822;2022-09-13T00:07:55;3.73;;;3.20;;
5452;SDS011;2749;53.576;9.822;2022-09-13T00:10:21;3.47;;;3.20;;
5452;SDS011;2749;53.576;9.822;2022-09-13T00:12:47;5.10;;;2.73;;
5452;SDS011;2749;53.576;9.822;2022-09-13T00:15:13;4.20;;;3.33;;
5452;SDS011;2749;53.576;9.822;2022-09-13T00:17:39;3.30;;;2.80;;
5452;SDS011;2749;53.576;9.822;2022-09-13T00:20:05;3.57;;;3.27;;
5452;SDS011;2749;53.576;9.822;2022-09-13T00:22:32;3.70;;;3.40;;
5452;SDS011;2749;53.576;9.822;2022-09-13T00:24:58;3.20;;;2.77;;
5452;SDS011;2749;53.576;9.822;2022-09-13T00:27:24;4.60;;;4.20;;
5452;SDS011;2749;53.576;9.822;2022-09-13T00:29:50;6.37;;;3.70;;
5452;SDS011;2749;53.576;9.822;2022-09-13T00:32:16;5.60;;;4.43;;
5452;SDS011;2749;53.576;9.822;2022-09-13T00:34:42;4.03;;;3.73;;
5452;SDS011;2749;53.576;9.822;2022-09-13T00:37:08;4.90;;;4.30;;
5452;SDS011;2749;53.576;9.822;2022-09-13T00:39:34;4.43;;;4.03;;
5452;SDS011;2749;53.576;9.822;2022-09-13T00:42:00;5.50;;;4.37;;
5452;SDS011;2749;53.576;9.822;2022-09-13T00:47:11;3.50;;;3.20;;
5452;SDS011;2749;53.576;9.822;2022-09-13T00:49:37;4.63;;;4.33;;
5452;SDS011;2749;53.576;9.822;2022-09-13T00:52:06;4.00;;;3.70;;
5452;SDS011;2749;53.576;9.822;2022-09-13T00:54:35;5.27;;;4.77;;
5452;SDS011;2749;53.576;9.822;2022-09-13T00:57:03;4.53;;;4.10;;
5452;SDS011;2749;53.576;9.822;2022-09-13T01:00:05;4.73;;;4.33;;
5452;SDS011;2749;53.576;9.822;2022-09-13T01:02:22;5.47;;;4.97;;
5452;SDS011;2749;53.576;9.822;2022-09-13T01:04:48;7.63;;;4.20;;
5452;SDS011;2749;53.576;9.822;2022-09-13T01:07:14;5.13;;;4.63;;
5452;SDS011;2749;53.576;9.822;2022-09-13T01:09:43;6.23;;;5.70;;
5452;SDS011;2749;53.576;9.822;2022-09-13T01:12:28;6.00;;;5.40;;
5452;SDS011;2749;53.576;9.822;2022-09-13T01:14:56;6.60;;;6.10;;
5452;SDS011;2749;53.576;9.822;2022-09-13T01:17:25;6.23;;;5.60;;
5452;SDS011;2749;53.576;9.822;2022-09-13T01:19:51;5.60;;;5.10;;
5452;SDS011;2749;53.576;9.822;2022-09-13T01:24:53;5.60;;;5.10;;
5452;SDS011;2749;53.576;9.822;2022-09-13T01:33:04;5.80;;;5.30;;
5452;SDS011;2749;53.576;9.822;2022-09-13T01:41:08;6.50;;;5.73;;
5452;SDS011;2749;53.576;9.822;2022-09-13T01:43:50;6.70;;;6.10;;
5452;SDS011;2749;53.576;9.822;2022-09-13T01:46:22;7.50;;;5.57;;
5452;SDS011;2749;53.576;9.822;2022-09-13T01:48:53;6.10;;;5.50;;
5452;SDS011;2749;53.576;9.822;2022-09-13T01:53:51;6.93;;;5.47;;
5452;SDS011;2749;53.576;9.822;2022-09-13T01:56:22;8.03;;;7.33;;
5452;SDS011;2749;53.576;9.822;2022-09-13T01:58:57;6.53;;;5.93;;
5452;SDS011;2749;53.576;9.822;2022-09-13T02:01:29;6.70;;;6.10;;
5452;SDS011;2749;53.576;9.822;2022-09-13T02:03:58;5.40;;;4.90;;
5452;SDS011;2749;53.576;9.822;2022-09-13T02:06:26;7.07;;;6.27;;
5452;SDS011;2749;53.576;9.822;2022-09-13T02:08:59;7.87;;;5.30;;
5452;SDS011;2749;53.576;9.822;2022-09-13T02:11:26;6.03;;;5.43;;
5452;SDS011;2749;53.576;9.822;2022-09-13T02:13:59;6.37;;;5.33;;
5452;SDS011;2749;53.576;9.822;2022-09-13T02:16:32;6.73;;;6.03;;
5452;SDS011;2749;53.576;9.822;2022-09-13T02:19:02;11.80;;;5.77;;
5452;SDS011;2749;53.576;9.822;2022-09-13T02:21:30;6.30;;;5.57;;
5452;SDS011;2749;53.576;9.822;2022-09-13T02:24:01;7.13;;;5.93;;
5452;SDS011;2749;53.576;9.822;2022-09-13T02:26:29;6.70;;;5.90;;
5452;SDS011;2749;53.576;9.822;2022-09-13T02:28:56;8.40;;;7.20;;
5452;SDS011;2749;53.576;9.822;2022-09-13T02:31:25;8.33;;;7.10;;
5452;SDS011;2749;53.576;9.822;2022-09-13T02:33:55;7.43;;;6.60;;
5452;SDS011;2749;53.576;9.822;2022-09-13T02:36:23;7.60;;;6.43;;
5452;SDS011;2749;53.576;9.822;2022-09-13T02:38:54;8.10;;;7.10;;
5452;SDS011;2749;53.576;9.822;2022-09-13T02:46:46;7.60;;;6.73;;
5452;SDS011;2749;53.576;9.822;2022-09-13T02:49:28;7.20;;;6.57;;
5452;SDS011;2749;53.576;9.822;2022-09-13T02:54:46;9.77;;;6.90;;
5452;SDS011;2749;53.576;9.822;2022-09-13T02:57:18;8.30;;;7.53;;
5452;SDS011;2749;53.576;9.822;2022-09-13T02:59:46;8.23;;;6.50;;
5452;SDS011;2749;53.576;9.822;2022-09-13T03:02:13;10.10;;;7.50;;
5452;SDS011;2749;53.576;9.822;2022-09-13T03:04:41;9.33;;;8.27;;
5452;SDS011;2749;53.576;9.822;2022-09-13T03:07:10;12.00;;;7.53;;
5452;SDS011;2749;53.576;9.822;2022-09-13T03:09:38;8.70;;;7.27;;
5452;SDS011;2749;53.576;9.822;2022-09-13T03:12:11;9.53;;;7.97;;
5452;SDS011;2749;53.576;9.822;2022-09-13T03:20:16;7.90;;;6.80;;
5452;SDS011;2749;53.576;9.822;2022-09-13T03:22:47;9.43;;;8.27;;
5452;SDS011;2749;53.576;9.822;2022-09-13T03:25:25;9.57;;;8.10;;
5452;SDS011;2749;53.576;9.822;2022-09-13T03:28:02;11.23;;;9.80;;
5452;SDS011;2749;53.576;9.822;2022-09-13T03:30:33;11.70;;;9.37;;
5452;SDS011;2749;53.576;9.822;2022-09-13T03:33:13;10.13;;;9.10;;
5452;SDS011;2749;53.576;9.822;2022-09-13T03:35:52;9.60;;;8.63;;
5452;SDS011;2749;53.576;9.822;2022-09-13T03:39:05;9.37;;;8.50;;
5452;SDS011;2749;53.576;9.822;2022-09-13T03:41:10;13.37;;;10.47;;
5452;SDS011;2749;53.576;9.822;2022-09-13T03:46:05;10.97;;;9.87;;
5452;SDS011;2749;53.576;9.822;2022-09-13T03:48:33;10.77;;;9.77;;
5452;SDS011;2749;53.576;9.822;2022-09-13T03:51:01;13.33;;;11.93;;
5452;SDS011;2749;53.576;9.822;2022-09-13T03:53:27;11.80;;;10.70;;
5452;SDS011;2749;53.576;9.822;2022-09-13T03:55:55;17.43;;;11.70;;
5452;SDS011;2749;53.576;9.822;2022-09-13T03:58:21;12.27;;;10.90;;
5452;SDS011;2749;53.576;9.822;2022-09-13T04:00:47;11.70;;;10.17;;
5452;SDS011;2749;53.576;9.822;2022-09-13T04:03:14;13.47;;;10.77;;
5452;SDS011;2749;53.576;9.822;2022-09-13T04:05:40;17.63;;;12.40;;
5452;SDS011;2749;53.576;9.822;2022-09-13T04:08:06;15.30;;;13.33;;
5452;SDS011;2749;53.576;9.822;2022-09-13T04:10:32;15.90;;;12.93;;
5452;SDS011;2749;53.576;9.822;2022-09-13T04:12:58;16.17;;;14.43;;
5452;SDS011;2749;53.576;9.822;2022-09-13T04:15:25;16.40;;;13.90;;
5452;SDS011;2749;53.576;9.822;2022-09-13T04:17:51;17.73;;;14.87;;
5452;SDS011;2749;53.576;9.822;2022-09-13T04:20:17;19.57;;;15.50;;
5452;SDS011;2749;53.576;9.822;2022-09-13T04:22:49;22.43;;;17.00;;
5452;SDS011;2749;53.576;9.822;2022-09-13T04:25:15;19.07;;;14.80;;
5452;SDS011;2749;53.576;9.822;2022-09-13T04:27:41;21.57;;;15.37;;
5452;SDS011;2749;53.576;9.822;2022-09-13T04:30:07;21.97;;;17.43;;
5452;SDS011;2749;53.576;9.822;2022-09-13T04:32:33;23.60;;;19.07;;
5452;SDS011;2749;53.576;9.822;2022-09-13T04:34:59;22.57;;;19.60;;
5452;SDS011;2749;53.576;9.822;2022-09-13T04:37:25;31.00;;;21.70;;
5452;SDS011;2749;53.576;9.822;2022-09-13T04:39:51;29.67;;;22.37;;
5452;SDS011;2749;53.576;9.822;2022-09-13T04:42:17;33.60;;;23.03;;
5452;SDS011;2749;53.576;9.822;2022-09-13T04:44:43;31.67;;;21.63;;
5452;SDS011;2749;53.576;9.822;2022-09-13T04:47:09;31.57;;;22.40;;
5452;SDS011;2749;53.576;9.822;2022-09-13T04:49:35;31.73;;;25.47;;
5452;SDS011;2749;53.576;9.822;2022-09-13T04:52:01;34.13;;;26.73;;
5452;SDS011;2749;53.576;9.822;2022-09-13T04:54:27;36.50;;;27.27;;
5452;SDS011;2749;53.576;9.822;2022-09-13T04:56:55;37.03;;;27.47;;
5452;SDS011;2749;53.576;9.822;2022-09-13T04:59:21;35.67;;;26.90;;
5452;SDS011;2749;53.576;9.822;2022-09-13T05:01:47;39.23;;;31.40;;
5452;SDS011;2749;53.576;9.822;2022-09-13T05:04:13;38.40;;;28.87;;
5452;SDS011;2749;53.576;9.822;2022-09-13T05:06:39;34.13;;;26.97;;
5452;SDS011;2749;53.576;9.822;2022-09-13T05:09:05;43.87;;;33.47;;
5452;SDS011;2749;53.576;9.822;2022-09-13T05:11:31;44.00;;;31.13;;
5452;SDS011;2749;53.576;9.822;2022-09-13T05:13:58;44.10;;;31.50;;
5452;SDS011;2749;53.576;9.822;2022-09-13T05:16:25;44.93;;;29.20;;
5452;SDS011;2749;53.576;9.822;2022-09-13T05:18:52;45.87;;;34.17;;
5452;SDS011;2749;53.576;9.822;2022-09-13T05:21:18;47.53;;;33.40;;
5452;SDS011;2749;53.576;9.822;2022-09-13T05:23:47;41.63;;;33.87;;
5452;SDS011;2749;53.576;9.822;2022-09-13T05:26:13;41.63;;;30.27;;
5452;SDS011;2749;53.576;9.822;2022-09-13T05:28:39;43.43;;;32.13;;
5452;SDS011;2749;53.576;9.822;2022-09-13T05:31:06;45.00;;;31.67;;
5452;SDS011;2749;53.576;9.822;2022-09-13T05:33:34;44.23;;;31.90;;
5452;SDS011;2749;53.576;9.822;2022-09-13T05:36:00;44.53;;;32.50;;
5452;SDS011;2749;53.576;9.822;2022-09-13T05:38:26;46.53;;;33.57;;
5452;SDS011;2749;53.576;9.822;2022-09-13T05:40:55;45.43;;;33.17;;
5452;SDS011;2749;53.576;9.822;2022-09-13T05:43:22;49.23;;;32.57;;
5452;SDS011;2749;53.576;9.822;2022-09-13T05:45:48;47.83;;;34.53;;
5452;SDS011;2749;53.576;9.822;2022-09-13T05:48:14;47.67;;;33.10;;
5452;SDS011;2749;53.576;9.822;2022-09-13T05:50:40;44.53;;;32.57;;
5452;SDS011;2749;53.576;9.822;2022-09-13T05:53:06;43.87;;;33.47;;
5452;SDS011;2749;53.576;9.822;2022-09-13T05:55:32;42.23;;;33.07;;
5452;SDS011;2749;53.576;9.822;2022-09-13T05:57:58;45.83;;;32.97;;
5452;SDS011;2749;53.576;9.822;2022-09-13T06:00:25;39.07;;;29.20;;
5452;SDS011;2749;53.576;9.822;2022-09-13T06:02:51;43.57;;;31.43;;
5452;SDS011;2749;53.576;9.822;2022-09-13T06:05:17;49.67;;;32.37;;
5452;SDS011;2749;53.576;9.822;2022-09-13T06:07:43;48.40;;;32.23;;
5452;SDS011;2749;53.576;9.822;2022-09-13T06:10:09;41.47;;;30.50;;
5452;SDS011;2749;53.576;9.822;2022-09-13T06:12:35;40.70;;;30.07;;
5452;SDS011;2749;53.576;9.822;2022-09-13T06:15:02;35.93;;;27.73;;
5452;SDS011;2749;53.576;9.822;2022-09-13T06:17:28;34.70;;;26.07;;
5452;SDS011;2749;53.576;9.822;2022-09-13T06:19:54;37.20;;;26.53;;
5452;SDS011;2749;53.576;9.822;2022-09-13T06:22:21;39.70;;;27.33;;
5452;SDS011;2749;53.576;9.822;2022-09-13T06:24:46;36.00;;;26.00;;
5452;SDS011;2749;53.576;9.822;2022-09-13T06:27:12;33.50;;;24.33;;
5452;SDS011;2749;53.576;9.822;2022-09-13T06:29:38;33.70;;;25.27;;
5452;SDS011;2749;53.576;9.822;2022-09-13T06:32:04;37.77;;;26.57;;
5452;SDS011;2749;53.576;9.822;2022-09-13T06:34:31;31.93;;;23.83;;
5452;SDS011;2749;53.576;9.822;2022-09-13T06:36:57;32.00;;;23.30;;
5452;SDS011;2749;53.576;9.822;2022-09-13T06:39:23;33.57;;;24.60;;
5452;SDS011;2749;53.576;9.822;2022-09-13T06:41:49;31.40;;;21.80;;
5452;SDS011;2749;53.576;9.822;2022-09-13T06:44:15;26.33;;;20.93;;
5452;SDS011;2749;53.576;9.822;2022-09-13T06:46:41;21.60;;;19.27;;
5452;SDS011;2749;53.576;9.822;2022-09-13T06:49:08;28.30;;;19.87;;
5452;SDS011;2749;53.576;9.822;2022-09-13T06:51:34;23.03;;;19.30;;
5452;SDS011;2749;53.576;9.822;2022-09-13T06:54:01;24.30;;;17.67;;
5452;SDS011;2749;53.576;9.822;2022-09-13T06:56:31;25.10;;;18.73;;
5452;SDS011;2749;53.576;9.822;2022-09-13T06:58:58;24.27;;;19.00;;
5452;SDS011;2749;53.576;9.822;2022-09-13T07:01:45;23.77;;;19.80;;
5452;SDS011;2749;53.576;9.822;2022-09-13T07:04:14;23.50;;;19.37;;
5452;SDS011;2749;53.576;9.822;2022-09-13T07:06:42;26.10;;;18.70;;
5452;SDS011;2749;53.576;9.822;2022-09-13T07:09:09;21.77;;;19.50;;
5452;SDS011;2749;53.576;9.822;2022-09-13T07:11:36;24.33;;;18.83;;
5452;SDS011;2749;53.576;9.822;2022-09-13T07:14:03;27.80;;;18.30;;
5452;SDS011;2749;53.576;9.822;2022-09-13T07:16:31;24.40;;;18.53;;
5452;SDS011;2749;53.576;9.822;2022-09-13T07:18:58;22.17;;;17.70;;
5452;SDS011;2749;53.576;9.822;2022-09-13T07:21:24;18.87;;;16.17;;
5452;SDS011;2749;53.576;9.822;2022-09-13T07:23:51;17.97;;;14.43;;
5452;SDS011;2749;53.576;9.822;2022-09-13T07:26:17;19.07;;;15.13;;
5452;SDS011;2749;53.576;9.822;2022-09-13T07:28:44;20.23;;;13.77;;
5452;SDS011;2749;53.576;9.822;2022-09-13T07:31:24;16.87;;;13.37;;
5452;SDS011;2749;53.576;9.822;2022-09-13T07:33:53;19.20;;;15.70;;
5452;SDS011;2749;53.576;9.822;2022-09-13T07:36:20;15.53;;;12.00;;
5452;SDS011;2749;53.576;9.822;2022-09-13T07:38:46;17.20;;;13.20;;
5452;SDS011;2749;53.576;9.822;2022-09-13T07:41:15;16.40;;;11.70;;
5452;SDS011;2749;53.576;9.822;2022-09-13T07:43:42;17.10;;;9.97;;
5452;SDS011;2749;53.576;9.822;2022-09-13T07:46:10;11.07;;;8.30;;
5452;SDS011;2749;53.576;9.822;2022-09-13T07:48:37;10.60;;;7.77;;
5452;SDS011;2749;53.576;9.822;2022-09-13T07:51:04;14.47;;;8.30;;
5452;SDS011;2749;53.576;9.822;2022-09-13T07:53:31;12.17;;;9.30;;
5452;SDS011;2749;53.576;9.822;2022-09-13T07:56:13;7.47;;;6.67;;
5452;SDS011;2749;53.576;9.822;2022-09-13T07:58:39;10.73;;;6.67;;
5452;SDS011;2749;53.576;9.822;2022-09-13T08:01:15;8.40;;;5.97;;
5452;SDS011;2749;53.576;9.822;2022-09-13T08:03:42;8.10;;;4.83;;
5452;SDS011;2749;53.576;9.822;2022-09-13T08:06:08;6.93;;;4.70;;
5452;SDS011;2749;53.576;9.822;2022-09-13T08:08:34;6.00;;;4.97;;
5452;SDS011;2749;53.576;9.822;2022-09-13T08:11:01;10.77;;;4.90;;
5452;SDS011;2749;53.576;9.822;2022-09-13T08:13:28;10.03;;;4.60;;
5452;SDS011;2749;53.576;9.822;2022-09-13T08:15:54;10.67;;;4.80;;
5452;SDS011;2749;53.576;9.822;2022-09-13T08:18:20;6.87;;;4.93;;
5452;SDS011;2749;53.576;9.822;2022-09-13T08:20:46;7.27;;;5.00;;
5452;SDS011;2749;53.576;9.822;2022-09-13T08:23:12;5.70;;;4.40;;
5452;SDS011;2749;53.576;9.822;2022-09-13T08:25:39;10.43;;;4.00;;
5452;SDS011;2749;53.576;9.822;2022-09-13T08:28:05;6.47;;;3.93;;
5452;SDS011;2749;53.576;9.822;2022-09-13T08:30:32;7.17;;;3.87;;
5452;SDS011;2749;53.576;9.822;2022-09-13T08:32:59;6.90;;;3.57;;
5452;SDS011;2749;53.576;9.822;2022-09-13T08:35:26;4.93;;;2.60;;
5452;SDS011;2749;53.576;9.822;2022-09-13T08:37:52;5.90;;;2.80;;
5452;SDS011;2749;53.576;9.822;2022-09-13T08:40:18;7.20;;;4.60;;
5452;SDS011;2749;53.576;9.822;2022-09-13T08:45:29;2.70;;;2.20;;
5452;SDS011;2749;53.576;9.822;2022-09-13T08:47:56;4.23;;;1.70;;
5452;SDS011;2749;53.576;9.822;2022-09-13T08:50:33;7.93;;;2.20;;
5452;SDS011;2749;53.576;9.822;2022-09-13T09:00:49;9.13;;;3.07;;
5452;SDS011;2749;53.576;9.822;2022-09-13T09:06:06;6.93;;;1.80;;
5452;SDS011;2749;53.576;9.822;2022-09-13T09:08:37;7.50;;;1.97;;
5452;SDS011;2749;53.576;9.822;2022-09-13T09:13:50;5.33;;;1.27;;
5452;SDS011;2749;53.576;9.822;2022-09-13T09:18:46;9.67;;;1.60;;
5452;SDS011;2749;53.576;9.822;2022-09-13T09:21:15;7.60;;;1.40;;
5452;SDS011;2749;53.576;9.822;2022-09-13T09:23:48;9.00;;;2.07;;
5452;SDS011;2749;53.576;9.822;2022-09-13T09:26:22;6.63;;;1.10;;
5452;SDS011;2749;53.576;9.822;2022-09-13T09:28:54;4.97;;;3.20;;
5452;SDS011;2749;53.576;9.822;2022-09-13T09:31:27;7.77;;;1.80;;
5452;SDS011;2749;53.576;9.822;2022-09-13T09:36:43;2.90;;;1.50;;
5452;SDS011;2749;53.576;9.822;2022-09-13T09:39:11;5.70;;;1.37;;
5452;SDS011;2749;53.576;9.822;2022-09-13T09:41:38;7.90;;;1.53;;
5452;SDS011;2749;53.576;9.822;2022-09-13T09:44:20;7.43;;;1.70;;
5452;SDS011;2749;53.576;9.822;2022-09-13T09:46:48;6.80;;;2.30;;
5452;SDS011;2749;53.576;9.822;2022-09-13T09:49:23;7.70;;;1.50;;
5452;SDS011;2749;53.576;9.822;2022-09-13T09:52:10;3.13;;;1.77;;
5452;SDS011;2749;53.576;9.822;2022-09-13T09:54:38;8.93;;;2.20;;
5452;SDS011;2749;53.576;9.822;2022-09-13T09:57:05;4.67;;;1.30;;
5452;SDS011;2749;53.576;9.822;2022-09-13T09:59:32;2.10;;;1.23;;
5452;SDS011;2749;53.576;9.822;2022-09-13T10:01:59;3.47;;;1.43;;
5452;SDS011;2749;53.576;9.822;2022-09-13T10:04:25;3.97;;;1.80;;
5452;SDS011;2749;53.576;9.822;2022-09-13T10:07:09;4.20;;;1.50;;
5452;SDS011;2749;53.576;9.822;2022-09-13T10:09:35;3.63;;;1.27;;
5452;SDS011;2749;53.576;9.822;2022-09-13T10:12:03;6.17;;;1.43;;
5452;SDS011;2749;53.576;9.822;2022-09-13T10:14:34;5.53;;;1.47;;
5452;SDS011;2749;53.576;9.822;2022-09-13T10:17:01;3.67;;;1.30;;
5452;SDS011;2749;53.576;9.822;2022-09-13T10:19:28;6.53;;;1.10;;
5452;SDS011;2749;53.576;9.822;2022-09-13T10:22:03;6.00;;;1.57;;
5452;SDS011;2749;53.576;9.822;2022-09-13T10:24:30;4.70;;;1.30;;
5452;SDS011;2749;53.576;9.822;2022-09-13T10:26:56;2.17;;;1.00;;
5452;SDS011;2749;53.576;9.822;2022-09-13T10:29:23;5.43;;;1.40;;
5452;SDS011;2749;53.576;9.822;2022-09-13T10:31:51;3.27;;;1.60;;
5452;SDS011;2749;53.576;9.822;2022-09-13T10:34:21;2.27;;;1.40;;
5452;SDS011;2749;53.576;9.822;2022-09-13T10:37:04;2.60;;;1.17;;
5452;SDS011;2749;53.576;9.822;2022-09-13T10:39:36;5.87;;;1.40;;
5452;SDS011;2749;53.576;9.822;2022-09-13T10:42:05;4.80;;;1.40;;
5452;SDS011;2749;53.576;9.822;2022-09-13T10:44:38;1.73;;;1.57;;
5452;SDS011;2749;53.576;9.822;2022-09-13T10:47:05;3.97;;;1.67;;
5452;SDS011;2749;53.576;9.822;2022-09-13T10:49:43;2.50;;;1.23;;
5452;SDS011;2749;53.576;9.822;2022-09-13T10:53:25;4.40;;;1.57;;
5452;SDS011;2749;53.576;9.822;2022-09-13T10:57:44;8.70;;;2.13;;
5452;SDS011;2749;53.576;9.822;2022-09-13T11:00:11;3.63;;;1.03;;
5452;SDS011;2749;53.576;9.822;2022-09-13T11:02:42;5.47;;;1.57;;
5452;SDS011;2749;53.576;9.822;2022-09-13T11:05:21;3.97;;;1.20;;
5452;SDS011;2749;53.576;9.822;2022-09-13T11:10:36;10.77;;;2.10;;
5452;SDS011;2749;53.576;9.822;2022-09-13T11:15:46;4.60;;;1.40;;
5452;SDS011;2749;53.576;9.822;2022-09-13T11:18:20;5.90;;;1.43;;
5452;SDS011;2749;53.576;9.822;2022-09-13T11:26:09;4.20;;;1.40;;
5452;SDS011;2749;53.576;9.822;2022-09-13T11:28:40;6.60;;;1.30;;
5452;SDS011;2749;53.576;9.822;2022-09-13T11:31:31;3.50;;;1.27;;
5452;SDS011;2749;53.576;9.822;2022-09-13T11:36:54;4.93;;;1.37;;
5452;SDS011;2749;53.576;9.822;2022-09-13T11:39:27;1.90;;;1.23;;
5452;SDS011;2749;53.576;9.822;2022-09-13T11:44:46;5.70;;;1.53;;
5452;SDS011;2749;53.576;9.822;2022-09-13T11:52:19;5.60;;;1.20;;
5452;SDS011;2749;53.576;9.822;2022-09-13T11:54:54;4.93;;;1.50;;
5452;SDS011;2749;53.576;9.822;2022-09-13T11:57:24;6.37;;;2.30;;
5452;SDS011;2749;53.576;9.822;2022-09-13T11:59:56;4.97;;;2.20;;
5452;SDS011;2749;53.576;9.822;2022-09-13T12:02:44;5.67;;;1.23;;
5452;SDS011;2749;53.576;9.822;2022-09-13T12:10:20;8.50;;;1.90;;
5452;SDS011;2749;53.576;9.822;2022-09-13T12:12:47;3.10;;;1.20;;
5452;SDS011;2749;53.576;9.822;2022-09-13T12:15:20;4.00;;;1.13;;
5452;SDS011;2749;53.576;9.822;2022-09-13T12:18:00;5.53;;;1.10;;
5452;SDS011;2749;53.576;9.822;2022-09-13T12:20:32;6.40;;;1.50;;
5452;SDS011;2749;53.576;9.822;2022-09-13T12:22:59;5.63;;;1.87;;
5452;SDS011;2749;53.576;9.822;2022-09-13T12:25:30;4.27;;;2.13;;
5452;SDS011;2749;53.576;9.822;2022-09-13T12:28:12;3.17;;;1.37;;
5452;SDS011;2749;53.576;9.822;2022-09-13T12:30:44;6.20;;;3.10;;
5452;SDS011;2749;53.576;9.822;2022-09-13T12:33:15;4.63;;;1.30;;
5452;SDS011;2749;53.576;9.822;2022-09-13T12:41:14;5.60;;;1.60;;
5452;SDS011;2749;53.576;9.822;2022-09-13T12:43:59;6.10;;;1.60;;
5452;SDS011;2749;53.576;9.822;2022-09-13T12:59:27;5.70;;;1.67;;
5452;SDS011;2749;53.576;9.822;2022-09-13T13:01:59;5.87;;;1.37;;
5452;SDS011;2749;53.576;9.822;2022-09-13T13:04:26;6.10;;;1.73;;
5452;SDS011;2749;53.576;9.822;2022-09-13T13:06:54;7.40;;;2.80;;
5452;SDS011;2749;53.576;9.822;2022-09-13T13:09:43;6.00;;;1.63;;
5452;SDS011;2749;53.576;9.822;2022-09-13T13:14:53;3.50;;;1.20;;
5452;SDS011;2749;53.576;9.822;2022-09-13T13:22:50;5.20;;;1.10;;
5452;SDS011;2749;53.576;9.822;2022-09-13T13:25:25;5.17;;;2.97;;
5452;SDS011;2749;53.576;9.822;2022-09-13T13:27:54;6.40;;;2.00;;
5452;SDS011;2749;53.576;9.822;2022-09-13T13:30:38;2.13;;;1.10;;
5452;SDS011;2749;53.576;9.822;2022-09-13T13:33:14;3.13;;;0.97;;
5452;SDS011;2749;53.576;9.822;2022-09-13T13:35:41;3.47;;;1.40;;
5452;SDS011;2749;53.576;9.822;2022-09-13T13:38:14;3.13;;;1.93;;
5452;SDS011;2749;53.576;9.822;2022-09-13T13:40:40;8.70;;;1.90;;
5452;SDS011;2749;53.576;9.822;2022-09-13T13:48:40;5.20;;;1.77;;
5452;SDS011;2749;53.576;9.822;2022-09-13T13:53:38;2.90;;;1.13;;
5452;SDS011;2749;53.576;9.822;2022-09-13T13:56:28;6.33;;;1.60;;
5452;SDS011;2749;53.576;9.822;2022-09-13T13:58:57;4.60;;;1.90;;
5452;SDS011;2749;53.576;9.822;2022-09-13T14:01:26;11.40;;;1.80;;
5452;SDS011;2749;53.576;9.822;2022-09-13T14:04:02;3.43;;;1.53;;
5452;SDS011;2749;53.576;9.822;2022-09-13T14:06:32;4.97;;;1.63;;
5452;SDS011;2749;53.576;9.822;2022-09-13T14:14:04;9.40;;;1.87;;
5452;SDS011;2749;53.576;9.822;2022-09-13T14:16:40;6.50;;;1.67;;
5452;SDS011;2749;53.576;9.822;2022-09-13T14:19:16;6.80;;;1.93;;
5452;SDS011;2749;53.576;9.822;2022-09-13T14:21:43;13.83;;;2.07;;
5452;SDS011;2749;53.576;9.822;2022-09-13T14:26:43;7.33;;;1.93;;
5452;SDS011;2749;53.576;9.822;2022-09-13T14:29:11;6.13;;;2.03;;
5452;SDS011;2749;53.576;9.822;2022-09-13T14:31:39;5.40;;;1.87;;
5452;SDS011;2749;53.576;9.822;2022-09-13T14:34:18;5.23;;;1.40;;
5452;SDS011;2749;53.576;9.822;2022-09-13T14:36:55;6.90;;;2.23;;
5452;SDS011;2749;53.576;9.822;2022-09-13T14:39:21;7.63;;;2.20;;
5452;SDS011;2749;53.576;9.822;2022-09-13T14:41:47;6.70;;;2.87;;
5452;SDS011;2749;53.576;9.822;2022-09-13T14:44:19;10.67;;;2.90;;
5452;SDS011;2749;53.576;9.822;2022-09-13T14:46:46;9.27;;;1.97;;
5452;SDS011;2749;53.576;9.822;2022-09-13T14:49:15;7.27;;;2.10;;
5452;SDS011;2749;53.576;9.822;2022-09-13T14:51:45;7.07;;;2.57;;
5452;SDS011;2749;53.576;9.822;2022-09-13T14:54:16;8.87;;;2.23;;
5452;SDS011;2749;53.576;9.822;2022-09-13T14:56:45;5.93;;;2.10;;
5452;SDS011;2749;53.576;9.822;2022-09-13T14:59:14;6.17;;;1.60;;
5452;SDS011;2749;53.576;9.822;2022-09-13T15:01:43;6.17;;;1.93;;
5452;SDS011;2749;53.576;9.822;2022-09-13T15:04:09;14.17;;;2.40;;
5452;SDS011;2749;53.576;9.822;2022-09-13T15:06:36;8.73;;;1.63;;
5452;SDS011;2749;53.576;9.822;2022-09-13T15:09:26;5.50;;;1.90;;
5452;SDS011;2749;53.576;9.822;2022-09-13T15:19:37;4.43;;;1.50;;
5452;SDS011;2749;53.576;9.822;2022-09-13T15:22:14;6.43;;;1.63;;
5452;SDS011;2749;53.576;9.822;2022-09-13T15:24:42;8.87;;;2.00;;
5452;SDS011;2749;53.576;9.822;2022-09-13T15:27:15;11.00;;;3.17;;
5452;SDS011;2749;53.576;9.822;2022-09-13T15:29:46;10.20;;;3.03;;
5452;SDS011;2749;53.576;9.822;2022-09-13T15:32:29;4.57;;;2.10;;
5452;SDS011;2749;53.576;9.822;2022-09-13T15:34:56;7.23;;;1.57;;
5452;SDS011;2749;53.576;9.822;2022-09-13T15:37:33;6.90;;;1.50;;
5452;SDS011;2749;53.576;9.822;2022-09-13T15:40:16;6.20;;;3.07;;
5452;SDS011;2749;53.576;9.822;2022-09-13T15:42:44;4.33;;;1.70;;
5452;SDS011;2749;53.576;9.822;2022-09-13T15:45:10;2.30;;;1.63;;
5452;SDS011;2749;53.576;9.822;2022-09-13T15:47:36;4.83;;;2.27;;
5452;SDS011;2749;53.576;9.822;2022-09-13T15:50:02;9.33;;;2.13;;
5452;SDS011;2749;53.576;9.822;2022-09-13T15:52:28;4.73;;;1.73;;
5452;SDS011;2749;53.576;9.822;2022-09-13T15:54:54;5.80;;;1.33;;
5452;SDS011;2749;53.576;9.822;2022-09-13T15:57:21;2.90;;;1.20;;
5452;SDS011;2749;53.576;9.822;2022-09-13T15:59:47;3.53;;;1.10;;
5452;SDS011;2749;53.576;9.822;2022-09-13T16:02:24;5.80;;;1.20;;
5452;SDS011;2749;53.576;9.822;2022-09-13T16:04:51;14.30;;;1.97;;
5452;SDS011;2749;53.576;9.822;2022-09-13T16:07:18;7.57;;;1.40;;
5452;SDS011;2749;53.576;9.822;2022-09-13T16:09:44;5.20;;;1.73;;
5452;SDS011;2749;53.576;9.822;2022-09-13T16:12:10;4.13;;;1.23;;
5452;SDS011;2749;53.576;9.822;2022-09-13T16:14:36;5.17;;;1.20;;
5452;SDS011;2749;53.576;9.822;2022-09-13T16:17:06;4.13;;;1.50;;
5452;SDS011;2749;53.576;9.822;2022-09-13T16:19:35;3.63;;;1.20;;
5452;SDS011;2749;53.576;9.822;2022-09-13T16:22:01;5.10;;;1.60;;
5452;SDS011;2749;53.576;9.822;2022-09-13T16:24:27;7.03;;;1.50;;
5452;SDS011;2749;53.576;9.822;2022-09-13T16:26:53;5.13;;;1.10;;
5452;SDS011;2749;53.576;9.822;2022-09-13T16:29:19;2.70;;;1.10;;
5452;SDS011;2749;53.576;9.822;2022-09-13T16:31:45;5.30;;;1.13;;
5452;SDS011;2749;53.576;9.822;2022-09-13T16:34:11;3.27;;;1.40;;
5452;SDS011;2749;53.576;9.822;2022-09-13T16:36:37;3.57;;;1.00;;
5452;SDS011;2749;53.576;9.822;2022-09-13T16:39:03;1.67;;;0.90;;
5452;SDS011;2749;53.576;9.822;2022-09-13T16:41:29;4.40;;;1.20;;
5452;SDS011;2749;53.576;9.822;2022-09-13T16:43:55;3.30;;;1.30;;
5452;SDS011;2749;53.576;9.822;2022-09-13T16:46:21;5.80;;;1.00;;
5452;SDS011;2749;53.576;9.822;2022-09-13T16:48:54;2.07;;;0.90;;
5452;SDS011;2749;53.576;9.822;2022-09-13T16:51:20;2.30;;;1.43;;
5452;SDS011;2749;53.576;9.822;2022-09-13T16:53:47;3.23;;;1.07;;
5452;SDS011;2749;53.576;9.822;2022-09-13T16:56:14;2.30;;;1.37;;
5452;SDS011;2749;53.576;9.822;2022-09-13T16:58:41;5.10;;;1.33;;
5452;SDS011;2749;53.576;9.822;2022-09-13T17:01:09;6.43;;;1.73;;
5452;SDS011;2749;53.576;9.822;2022-09-13T17:03:36;8.20;;;1.37;;
5452;SDS011;2749;53.576;9.822;2022-09-13T17:06:03;3.17;;;1.90;;
5452;SDS011;2749;53.576;9.822;2022-09-13T17:08:30;2.57;;;1.20;;
5452;SDS011;2749;53.576;9.822;2022-09-13T17:10:57;2.60;;;1.33;;
5452;SDS011;2749;53.576;9.822;2022-09-13T17:13:23;2.47;;;1.43;;
5452;SDS011;2749;53.576;9.822;2022-09-13T17:15:49;6.47;;;1.70;;
5452;SDS011;2749;53.576;9.822;2022-09-13T17:18:15;2.50;;;1.10;;
5452;SDS011;2749;53.576;9.822;2022-09-13T17:20:45;13.27;;;2.00;;
5452;SDS011;2749;53.576;9.822;2022-09-13T17:23:11;5.73;;;2.17;;
5452;SDS011;2749;53.576;9.822;2022-09-13T17:25:39;3.13;;;1.40;;
5452;SDS011;2749;53.576;9.822;2022-09-13T17:28:07;3.37;;;1.50;;
5452;SDS011;2749;53.576;9.822;2022-09-13T17:30:33;4.83;;;1.90;;
5452;SDS011;2749;53.576;9.822;2022-09-13T17:32:59;3.87;;;1.50;;
5452;SDS011;2749;53.576;9.822;2022-09-13T17:35:26;4.90;;;1.40;;